Time;durP1;ratioP1;P1;durP2;ratioP2;P2;SDS_P1;SDS_P2;PMS_P1;PMS_P2;Temp;Humidity;BMP_temperature;BMP_pressure;BME280_temperature;BME280_humidity;BME280_pressure;Samples;Min_cycle;Max_cycle;Signal;HPM_P1;HPM_P2
2023/08/29 00:00:00;;;;;;;1.05;0.20;;;20.20;91.80;;;;;;5078732;28;20082;-85
2023/08/29 00:02:31;;;;;;;1.30;0.20;;;20.20;91.90;;;;;;5095732;28;20043;-86
2023/08/29 00:04:57;;;;;;;1.52;0.20;;;20.20;92.20;;;;;;5095904;28;20032;-85
2023/08/29 00:07:23;;;;;;;1.65;0.50;;;20.20;92.00;;;;;;5095656;28;20032;-87
2023/08/29 00:09:48;;;;;;;0.60;0.20;;;20.20;92.00;;;;;;5096977;28;20349;-86
2023/08/29 00:12:14;;;;;;;1.33;0.25;;;20.20;92.10;;;;;;5078927;28;20054;-87
2023/08/29 00:14:40;;;;;;;0.98;0.30;;;20.20;92.10;;;;;;5096456;28;20030;-85
2023/08/29 00:17:07;;;;;;;0.90;0.20;;;20.30;92.20;;;;;;5096621;28;20024;-86
2023/08/29 00:19:33;;;;;;;0.80;0.20;;;20.30;92.10;;;;;;5096272;28;20062;-86
2023/08/29 00:21:58;;;;;;;1.25;0.35;;;20.30;92.10;;;;;;5096398;28;20036;-87
2023/08/29 00:24:25;;;;;;;0.43;0.20;;;20.30;91.90;;;;;;5096828;28;20380;-86
2023/08/29 00:26:50;;;;;;;0.75;0.20;;;20.30;92.10;;;;;;5096417;28;20028;-86
2023/08/29 00:29:16;;;;;;;1.08;0.20;;;20.20;92.10;;;;;;5094841;28;20055;-86
2023/08/29 00:31:42;;;;;;;0.57;0.15;;;20.20;92.10;;;;;;5095982;28;20024;-86
2023/08/29 00:34:07;;;;;;;1.35;0.30;;;20.20;92.00;;;;;;5096447;28;20059;-86
2023/08/29 00:36:33;;;;;;;0.55;0.22;;;20.10;91.80;;;;;;5095491;28;20059;-86
2023/08/29 00:38:59;;;;;;;1.48;0.10;;;20.10;92.00;;;;;;5095031;28;20077;-86
2023/08/29 00:41:24;;;;;;;1.33;0.13;;;20.10;92.10;;;;;;5094765;28;20032;-85
2023/08/29 00:43:50;;;;;;;1.02;0.20;;;20.10;92.10;;;;;;5094793;28;20055;-84
2023/08/29 00:46:16;;;;;;;1.15;0.22;;;20.10;92.20;;;;;;5095135;28;20050;-85
2023/08/29 00:48:42;;;;;;;1.60;0.20;;;20.10;92.10;;;;;;5094744;28;20028;-85
2023/08/29 00:51:08;;;;;;;0.68;0.20;;;20.10;92.20;;;;;;5095814;28;20024;-86
2023/08/29 00:53:35;;;;;;;2.92;0.32;;;20.10;92.30;;;;;;5094162;28;20039;-85
2023/08/29 00:56:01;;;;;;;0.68;0.25;;;20.00;91.90;;;;;;5095721;28;20472;-84
2023/08/29 00:58:28;;;;;;;2.15;0.20;;;20.00;92.20;;;;;;5095668;28;20107;-85
2023/08/29 01:00:54;;;;;;;1.23;0.28;;;20.00;92.30;;;;;;5095666;28;20032;-86
2023/08/29 01:03:20;;;;;;;0.98;0.20;;;20.00;92.20;;;;;;5094568;28;20028;-86
2023/08/29 01:05:45;;;;;;;0.60;0.10;;;20.00;92.30;;;;;;5094872;28;20028;-85
2023/08/29 01:08:11;;;;;;;1.42;0.75;;;19.90;92.20;;;;;;5094453;28;20084;-85
2023/08/29 01:10:45;;;;;;;0.82;0.30;;;19.80;92.10;;;;;;5095365;28;20138;-85
2023/08/29 01:13:33;;;;;;;1.52;0.20;;;19.80;92.30;;;;;;5095092;28;20024;-85
2023/08/29 01:16:02;;;;;;;1.05;0.40;;;19.80;92.60;;;;;;5095326;28;20024;-86
2023/08/29 01:18:31;;;;;;;1.23;0.32;;;19.70;92.20;;;;;;5094030;28;20058;-86
2023/08/29 01:21:06;;;;;;;0.85;0.25;;;19.70;92.30;;;;;;5095100;28;20027;-86
2023/08/29 01:23:40;;;;;;;0.98;0.20;;;19.60;92.60;;;;;;5078555;28;20115;-86
2023/08/29 01:26:09;;;;;;;0.98;0.20;;;19.60;92.40;;;;;;5094766;28;20432;-85
2023/08/29 01:28:36;;;;;;;1.05;0.10;;;19.60;92.60;;;;;;5094673;28;20131;-85
2023/08/29 01:31:03;;;;;;;1.33;0.28;;;19.70;92.70;;;;;;5094356;28;20417;-85
2023/08/29 01:33:29;;;;;;;1.48;0.30;;;19.60;92.50;;;;;;5095301;28;20123;-85
2023/08/29 01:35:55;;;;;;;0.98;0.25;;;19.60;92.30;;;;;;5095032;28;20452;-86
2023/08/29 01:38:20;;;;;;;0.40;0.10;;;19.40;92.60;;;;;;5094466;28;20059;-86
2023/08/29 01:40:46;;;;;;;1.30;0.20;;;19.40;92.90;;;;;;5094163;28;20028;-85
2023/08/29 01:43:12;;;;;;;0.95;0.20;;;19.50;92.90;;;;;;5093462;28;20028;-84
2023/08/29 01:45:38;;;;;;;0.93;0.20;;;19.50;93.00;;;;;;5093638;28;20073;-85
2023/08/29 01:48:04;;;;;;;0.93;0.20;;;19.50;92.70;;;;;;5093368;28;20028;-85
2023/08/29 01:50:32;;;;;;;0.45;0.15;;;19.50;93.00;;;;;;5094755;28;20043;-86
2023/08/29 01:53:00;;;;;;;1.27;0.20;;;19.50;93.00;;;;;;5093368;28;20086;-86
2023/08/29 01:55:26;;;;;;;1.25;0.28;;;19.50;92.90;;;;;;5094632;28;20020;-85
2023/08/29 01:57:54;;;;;;;0.63;0.20;;;19.50;92.70;;;;;;5093492;28;20161;-86
2023/08/29 02:00:22;;;;;;;0.82;0.20;;;19.50;93.00;;;;;;5093323;28;20122;-85
2023/08/29 02:02:47;;;;;;;1.55;0.15;;;19.40;93.10;;;;;;5094814;28;20073;-85
2023/08/29 02:05:13;;;;;;;0.68;0.20;;;19.50;93.20;;;;;;5093421;28;20028;-84
2023/08/29 02:07:39;;;;;;;2.42;0.32;;;19.50;93.00;;;;;;5093317;28;20028;-85
2023/08/29 02:10:05;;;;;;;1.17;0.20;;;19.40;92.70;;;;;;5093302;28;20048;-85
2023/08/29 02:12:31;;;;;;;0.63;0.20;;;19.30;92.90;;;;;;5093955;28;20032;-85
2023/08/29 02:14:56;;;;;;;0.43;0.20;;;19.40;93.10;;;;;;5093005;28;20035;-86
2023/08/29 02:17:22;;;;;;;1.27;0.30;;;19.40;93.20;;;;;;5093092;28;20105;-85
2023/08/29 02:19:47;;;;;;;1.80;0.20;;;19.40;93.20;;;;;;5092842;28;20068;-85
2023/08/29 02:22:13;;;;;;;1.23;0.20;;;19.40;93.20;;;;;;5094142;28;20031;-85
2023/08/29 02:24:39;;;;;;;2.78;0.85;;;19.30;93.10;;;;;;5092942;28;20058;-86
2023/08/29 02:27:05;;;;;;;1.23;0.35;;;19.30;93.30;;;;;;5093014;28;20032;-86
2023/08/29 02:29:30;;;;;;;0.60;0.20;;;19.30;93.30;;;;;;5092539;28;20044;-86
2023/08/29 02:31:56;;;;;;;0.77;0.10;;;19.40;93.40;;;;;;5093800;28;20039;-85
2023/08/29 02:34:22;;;;;;;1.60;0.20;;;19.50;93.40;;;;;;5094219;28;20038;-85
2023/08/29 02:36:47;;;;;;;1.42;0.20;;;19.40;93.20;;;;;;5092877;28;20461;-85
2023/08/29 02:39:13;;;;;;;1.95;0.40;;;19.40;93.10;;;;;;5094243;28;20054;-86
2023/08/29 02:41:38;;;;;;;0.70;0.15;;;19.30;93.20;;;;;;5092804;28;20460;-86
2023/08/29 02:44:04;;;;;;;0.40;0.10;;;19.30;93.10;;;;;;5093692;28;20440;-85
2023/08/29 02:46:30;;;;;;;1.42;0.20;;;19.30;93.30;;;;;;5094034;28;20032;-86
2023/08/29 02:48:55;;;;;;;0.52;0.20;;;19.40;93.40;;;;;;5092783;28;20069;-86
2023/08/29 02:51:21;;;;;;;1.70;0.22;;;19.40;93.50;;;;;;5093920;28;20358;-86
2023/08/29 02:53:47;;;;;;;0.57;0.17;;;19.50;93.60;;;;;;5092758;28;20047;-85
2023/08/29 02:56:12;;;;;;;0.30;0.10;;;19.50;93.40;;;;;;5093634;28;20125;-85
2023/08/29 02:58:38;;;;;;;0.52;0.10;;;19.50;93.50;;;;;;5093912;28;20120;-85
2023/08/29 03:01:09;;;;;;;0.65;0.10;;;19.50;93.40;;;;;;5092845;28;20376;-85
2023/08/29 03:03:36;;;;;;;1.13;0.15;;;19.50;93.20;;;;;;5093998;28;20460;-85
2023/08/29 03:06:01;;;;;;;0.35;0.10;;;19.40;93.20;;;;;;5093794;28;20024;-86
2023/08/29 03:08:27;;;;;;;0.22;0.10;;;19.40;93.40;;;;;;5093528;28;20038;-86
2023/08/29 03:10:53;;;;;;;2.13;0.20;;;19.40;93.50;;;;;;5093413;28;20422;-85
2023/08/29 03:13:19;;;;;;;0.68;0.10;;;19.50;93.40;;;;;;5093875;28;20024;-85
2023/08/29 03:15:45;;;;;;;0.70;0.10;;;19.50;93.10;;;;;;5092644;28;20089;-85
2023/08/29 03:18:11;;;;;;;0.50;0.13;;;19.50;93.20;;;;;;5094089;28;20059;-85
2023/08/29 03:20:40;;;;;;;1.10;0.20;;;19.60;93.20;;;;;;5093662;28;20459;-85
2023/08/29 03:23:06;;;;;;;1.05;0.10;;;19.60;93.30;;;;;;5092197;28;20476;-85
2023/08/29 03:25:32;;;;;;;1.60;0.10;;;19.60;93.40;;;;;;5092496;28;20115;-85
2023/08/29 03:27:57;;;;;;;0.55;0.10;;;19.60;93.30;;;;;;5092370;28;20051;-83
2023/08/29 03:30:25;;;;;;;1.05;0.13;;;19.60;93.40;;;;;;5092388;28;20044;-86
2023/08/29 03:32:51;;;;;;;0.77;0.10;;;19.70;93.30;;;;;;5093043;28;20032;-85
2023/08/29 03:35:18;;;;;;;0.32;0.10;;;19.60;93.40;;;;;;5093548;28;20457;-84
2023/08/29 03:37:44;;;;;;;1.52;0.17;;;19.60;93.30;;;;;;5095184;28;20031;-85
2023/08/29 03:40:11;;;;;;;0.30;0.10;;;19.60;93.30;;;;;;5095998;28;20024;-85
2023/08/29 03:42:36;;;;;;;0.88;0.10;;;19.50;93.20;;;;;;5097252;28;20029;-85
2023/08/29 03:45:03;;;;;;;0.70;0.20;;;19.50;93.10;;;;;;5079436;28;20038;-86
2023/08/29 03:47:29;;;;;;;0.82;0.20;;;19.30;92.90;;;;;;5096217;28;20054;-86
2023/08/29 03:49:55;;;;;;;0.98;0.10;;;19.30;93.20;;;;;;5096797;28;20044;-85
2023/08/29 03:52:26;;;;;;;1.00;0.20;;;19.40;93.30;;;;;;5095811;28;20036;-86
2023/08/29 03:54:56;;;;;;;1.10;0.20;;;19.40;93.40;;;;;;5097132;28;20028;-86
2023/08/29 03:57:27;;;;;;;1.15;0.20;;;19.40;93.40;;;;;;5097065;28;20218;-85
2023/08/29 03:59:53;;;;;;;0.87;0.10;;;19.50;93.40;;;;;;5095982;28;20093;-85
2023/08/29 04:02:20;;;;;;;5.00;0.63;;;19.50;93.30;;;;;;5097132;28;20366;-85
2023/08/29 04:04:45;;;;;;;1.70;0.15;;;19.40;93.00;;;;;;5078743;28;20028;-85
2023/08/29 04:07:11;;;;;;;2.03;0.40;;;19.30;93.10;;;;;;5096765;28;20487;-85
2023/08/29 04:09:37;;;;;;;0.50;0.10;;;19.30;93.20;;;;;;5095263;28;20040;-86
2023/08/29 04:12:03;;;;;;;0.90;0.20;;;19.30;93.40;;;;;;5096919;28;20475;-85
2023/08/29 04:14:29;;;;;;;1.23;0.10;;;19.30;93.40;;;;;;5078586;28;20032;-85
2023/08/29 04:16:55;;;;;;;0.50;0.15;;;19.30;93.40;;;;;;5096447;28;20039;-86
2023/08/29 04:19:21;;;;;;;1.02;0.20;;;19.30;93.50;;;;;;5095738;28;20127;-85
2023/08/29 04:21:47;;;;;;;0.75;0.10;;;19.30;93.50;;;;;;5095275;28;20491;-85
2023/08/29 04:24:12;;;;;;;0.50;0.10;;;19.30;93.30;;;;;;5096467;28;20039;-84
2023/08/29 04:26:38;;;;;;;1.05;0.20;;;19.30;93.40;;;;;;5095382;28;20020;-85
2023/08/29 04:29:03;;;;;;;2.13;0.20;;;19.30;93.50;;;;;;5094672;28;20501;-85
2023/08/29 04:31:29;;;;;;;2.55;0.20;;;19.20;93.40;;;;;;5095879;28;20032;-85
2023/08/29 04:33:55;;;;;;;0.52;0.10;;;19.20;93.10;;;;;;5096526;28;20119;-85
2023/08/29 04:36:20;;;;;;;1.10;0.20;;;19.30;93.10;;;;;;5096134;28;20468;-85
2023/08/29 04:38:49;;;;;;;0.60;0.20;;;19.30;93.20;;;;;;5095584;28;20032;-85
2023/08/29 04:41:14;;;;;;;1.48;0.10;;;19.20;93.10;;;;;;5095526;28;20033;-85
2023/08/29 04:43:40;;;;;;;1.48;0.30;;;19.20;93.10;;;;;;5096613;28;20027;-85
2023/08/29 04:46:09;;;;;;;2.55;0.30;;;19.10;93.10;;;;;;5095178;28;20039;-85
2023/08/29 04:48:35;;;;;;;1.85;0.30;;;19.10;93.30;;;;;;5095026;28;20115;-85
2023/08/29 04:51:01;;;;;;;0.85;0.30;;;19.10;93.40;;;;;;5077917;28;20119;-85
2023/08/29 04:53:27;;;;;;;1.80;0.30;;;19.10;93.50;;;;;;5095671;28;20433;-84
2023/08/29 04:56:03;;;;;;;1.05;0.20;;;19.10;93.60;;;;;;5095666;28;20086;-81
2023/08/29 04:58:30;;;;;;;1.30;0.20;;;19.10;93.60;;;;;;5095573;28;20036;-80
2023/08/29 05:00:56;;;;;;;1.98;0.40;;;19.10;93.60;;;;;;5095286;28;20412;-81
2023/08/29 05:03:22;;;;;;;2.53;0.30;;;19.00;93.60;;;;;;5096086;28;20035;-81
2023/08/29 05:05:48;;;;;;;2.13;0.20;;;19.00;93.50;;;;;;5094422;28;20024;-80
2023/08/29 05:08:14;;;;;;;3.10;0.20;;;18.90;94.00;;;;;;5095153;28;20457;-80
2023/08/29 05:10:41;;;;;;;1.10;0.35;;;18.90;94.00;;;;;;5094444;28;20029;-81
2023/08/29 05:13:06;;;;;;;3.15;0.52;;;19.00;94.10;;;;;;5095047;28;20021;-81
2023/08/29 05:15:33;;;;;;;0.90;0.20;;;19.00;94.10;;;;;;5094175;28;20040;-81
2023/08/29 05:17:59;;;;;;;1.38;0.20;;;19.10;94.40;;;;;;5095225;28;20089;-79
2023/08/29 05:20:25;;;;;;;2.95;0.30;;;19.10;94.40;;;;;;5096097;28;20525;-83
2023/08/29 05:22:50;;;;;;;1.75;0.22;;;19.20;94.40;;;;;;5096171;28;20031;-82
2023/08/29 05:25:16;;;;;;;0.70;0.10;;;19.30;94.30;;;;;;5096449;28;20028;-81
2023/08/29 05:27:42;;;;;;;1.55;0.30;;;19.40;94.30;;;;;;5095404;28;20515;-81
2023/08/29 05:30:08;;;;;;;1.80;0.13;;;19.40;94.30;;;;;;5097056;28;20055;-81
2023/08/29 05:32:35;;;;;;;0.77;0.20;;;19.50;94.20;;;;;;5095241;28;20519;-82
2023/08/29 05:35:02;;;;;;;2.72;0.20;;;19.50;94.20;;;;;;5095730;28;20499;-82
2023/08/29 05:37:28;;;;;;;1.83;0.20;;;19.50;93.90;;;;;;5094458;28;20035;-82
2023/08/29 05:39:53;;;;;;;1.88;0.30;;;19.40;94.00;;;;;;5095645;28;20032;-83
2023/08/29 05:42:19;;;;;;;2.58;0.20;;;19.40;94.00;;;;;;5095440;28;20097;-81
2023/08/29 05:44:45;;;;;;;1.25;0.20;;;19.40;94.00;;;;;;5095710;28;20058;-81
2023/08/29 05:47:10;;;;;;;1.27;0.20;;;19.40;94.10;;;;;;5094034;28;20035;-81
2023/08/29 05:49:36;;;;;;;1.25;0.20;;;19.40;94.10;;;;;;5095567;28;20036;-82
2023/08/29 05:52:02;;;;;;;1.60;0.28;;;19.50;94.10;;;;;;5095998;28;20436;-82
2023/08/29 05:54:28;;;;;;;1.13;0.25;;;19.50;94.10;;;;;;5096678;28;20032;-82
2023/08/29 05:56:54;;;;;;;0.95;0.15;;;19.60;94.00;;;;;;5095900;28;20024;-81
2023/08/29 05:59:19;;;;;;;0.98;0.30;;;19.60;93.90;;;;;;5095656;28;20028;-82
2023/08/29 06:01:45;;;;;;;2.22;0.22;;;19.60;93.20;;;;;;5095578;28;20080;-81
2023/08/29 06:04:11;;;;;;;1.27;0.20;;;19.50;93.40;;;;;;5094834;28;20056;-83
2023/08/29 06:06:39;;;;;;;1.60;0.30;;;19.50;93.50;;;;;;5095267;28;20424;-82
2023/08/29 06:09:08;;;;;;;1.88;0.20;;;19.50;93.60;;;;;;5096435;28;20040;-81
2023/08/29 06:11:34;;;;;;;2.25;0.20;;;19.50;93.70;;;;;;5096150;28;20032;-82
2023/08/29 06:14:01;;;;;;;1.67;0.22;;;19.50;93.70;;;;;;5094289;28;20602;-81
2023/08/29 06:16:26;;;;;;;1.42;0.20;;;19.50;93.70;;;;;;5111665;28;20061;-82
2023/08/29 06:18:52;;;;;;;1.92;0.20;;;19.60;93.80;;;;;;5095971;28;20097;-82
2023/08/29 06:21:18;;;;;;;0.50;0.20;;;19.70;93.70;;;;;;5095811;28;20447;-81
2023/08/29 06:23:43;;;;;;;1.27;0.20;;;19.70;93.70;;;;;;5095893;28;20039;-81
2023/08/29 06:26:09;;;;;;;2.40;0.20;;;19.70;93.60;;;;;;5094660;28;20407;-82
2023/08/29 06:28:35;;;;;;;2.10;0.43;;;19.70;93.40;;;;;;5095242;28;20108;-82
2023/08/29 06:31:08;;;;;;;3.22;0.20;;;19.80;93.50;;;;;;5095644;28;20048;-81
2023/08/29 06:33:34;;;;;;;2.15;0.20;;;19.70;93.30;;;;;;5095413;28;20028;-81
2023/08/29 06:36:00;;;;;;;0.75;0.30;;;19.70;93.40;;;;;;5095194;28;20115;-82
2023/08/29 06:38:26;;;;;;;1.23;0.22;;;19.80;93.40;;;;;;5093903;28;20492;-82
2023/08/29 06:40:56;;;;;;;0.88;0.20;;;19.80;93.30;;;;;;5094505;28;20028;-82
2023/08/29 06:43:22;;;;;;;1.42;0.20;;;19.80;93.30;;;;;;5095358;28;20051;-81
2023/08/29 06:45:48;;;;;;;2.20;0.30;;;19.80;93.40;;;;;;5094480;28;20036;-81
2023/08/29 06:48:14;;;;;;;1.90;0.20;;;19.80;93.50;;;;;;5094751;28;20468;-80
2023/08/29 06:50:39;;;;;;;2.53;0.20;;;19.70;92.90;;;;;;5094897;28;20068;-81
2023/08/29 06:53:05;;;;;;;1.17;0.20;;;19.70;93.20;;;;;;5094090;28;20066;-80
2023/08/29 06:55:34;;;;;;;1.58;0.20;;;19.80;93.30;;;;;;5076696;28;20357;-82
2023/08/29 06:58:07;;;;;;;1.15;0.20;;;19.80;93.30;;;;;;5093989;28;20031;-82
2023/08/29 07:00:33;;;;;;;0.68;0.20;;;20.00;93.20;;;;;;5094303;28;20029;-82
2023/08/29 07:03:00;;;;;;;2.45;0.30;;;20.10;93.10;;;;;;5093963;28;20103;-82
2023/08/29 07:05:29;;;;;;;1.80;0.30;;;20.10;92.90;;;;;;5094305;28;20040;-82
2023/08/29 07:07:55;;;;;;;2.30;0.28;;;20.30;92.90;;;;;;5092738;28;20407;-81
2023/08/29 07:10:21;;;;;;;0.77;0.13;;;20.30;92.90;;;;;;5094243;28;20043;-81
2023/08/29 07:12:49;;;;;;;1.30;0.10;;;20.40;92.90;;;;;;5097158;28;20032;-81
2023/08/29 07:15:15;;;;;;;1.83;0.50;;;20.50;92.80;;;;;;5097876;28;20032;-81
2023/08/29 07:17:40;;;;;;;0.68;0.20;;;20.60;92.90;;;;;;5097982;28;20047;-81
2023/08/29 07:20:08;;;;;;;2.03;0.45;;;20.60;92.60;;;;;;5097770;28;20123;-80
2023/08/29 07:22:36;;;;;;;2.42;0.40;;;20.50;92.80;;;;;;5097231;28;20071;-81
2023/08/29 07:25:03;;;;;;;0.98;0.30;;;20.50;92.90;;;;;;5097095;28;20055;-81
2023/08/29 07:27:30;;;;;;;0.75;0.20;;;20.50;92.70;;;;;;5096927;28;20031;-80
2023/08/29 07:29:55;;;;;;;1.00;0.30;;;20.50;92.60;;;;;;5097645;28;20052;-80
2023/08/29 07:32:21;;;;;;;3.88;0.30;;;20.50;92.50;;;;;;5097625;28;20028;-80
2023/08/29 07:34:47;;;;;;;1.02;0.30;;;20.60;92.50;;;;;;5097716;28;20168;-80
2023/08/29 07:37:12;;;;;;;1.50;0.38;;;20.60;92.60;;;;;;5097672;28;20464;-81
2023/08/29 07:39:38;;;;;;;1.67;0.20;;;20.50;92.40;;;;;;5097874;28;20498;-80
2023/08/29 07:42:04;;;;;;;1.00;0.20;;;20.50;92.50;;;;;;5096610;28;20384;-82
2023/08/29 07:44:30;;;;;;;4.70;0.60;;;20.50;92.60;;;;;;5098090;28;20373;-80
2023/08/29 07:46:56;;;;;;;1.63;0.25;;;20.40;93.00;;;;;;5097933;28;20029;-80
2023/08/29 07:49:22;;;;;;;1.90;0.32;;;20.30;93.00;;;;;;5097493;28;20487;-80
2023/08/29 07:51:51;;;;;;;1.90;0.30;;;20.20;93.20;;;;;;5097756;28;20111;-80
2023/08/29 07:54:17;;;;;;;0.63;0.15;;;20.20;93.10;;;;;;5098151;28;20032;-79
2023/08/29 07:56:42;;;;;;;0.77;0.20;;;20.10;93.20;;;;;;5096890;28;20039;-80
2023/08/29 07:59:08;;;;;;;2.03;0.20;;;20.00;93.40;;;;;;5097281;28;20028;-81
2023/08/29 08:01:33;;;;;;;1.98;0.20;;;20.10;93.50;;;;;;5096988;28;20020;-80
2023/08/29 08:03:59;;;;;;;0.82;0.10;;;20.10;93.60;;;;;;5097249;28;20103;-80
2023/08/29 08:06:25;;;;;;;0.40;0.10;;;20.20;93.50;;;;;;5097130;28;20111;-80
2023/08/29 08:08:51;;;;;;;1.20;0.20;;;20.20;93.50;;;;;;5096862;28;20029;-80
2023/08/29 08:11:16;;;;;;;1.08;0.20;;;20.30;93.50;;;;;;5097219;28;20066;-80
2023/08/29 08:13:42;;;;;;;1.35;0.20;;;20.40;93.50;;;;;;5097267;28;20078;-80
2023/08/29 08:16:08;;;;;;;2.42;0.10;;;20.30;93.30;;;;;;5097051;28;20028;-80
2023/08/29 08:18:33;;;;;;;1.85;0.10;;;20.30;92.90;;;;;;5097182;28;20052;-81
2023/08/29 08:20:59;;;;;;;0.68;0.10;;;20.20;92.30;;;;;;5096882;28;20056;-80
2023/08/29 08:23:25;;;;;;;1.35;0.20;;;20.10;92.30;;;;;;5096904;28;20032;-80
2023/08/29 08:25:50;;;;;;;2.53;0.40;;;20.10;92.30;;;;;;5078780;28;20028;-80
2023/08/29 08:28:16;;;;;;;0.60;0.10;;;20.00;92.10;;;;;;5096613;28;20035;-80
2023/08/29 08:30:41;;;;;;;0.52;0.10;;;20.00;91.90;;;;;;5096892;28;20066;-81
2023/08/29 08:33:07;;;;;;;1.58;0.20;;;20.00;92.00;;;;;;5097535;28;20077;-80
2023/08/29 08:35:33;;;;;;;1.63;0.10;;;20.00;92.30;;;;;;5095883;28;20128;-80
2023/08/29 08:37:58;;;;;;;1.95;0.20;;;20.20;92.50;;;;;;5095646;28;20071;-81
2023/08/29 08:40:24;;;;;;;1.80;0.10;;;20.20;92.40;;;;;;5096658;28;20093;-80
2023/08/29 08:42:50;;;;;;;1.60;0.28;;;20.30;92.30;;;;;;5096237;28;20063;-80
2023/08/29 08:45:16;;;;;;;1.95;0.20;;;20.30;92.40;;;;;;5096241;28;20460;-79
2023/08/29 08:47:43;;;;;;;1.80;0.15;;;20.40;92.50;;;;;;5096208;28;20056;-80
2023/08/29 08:50:09;;;;;;;0.98;0.10;;;20.40;92.60;;;;;;5095986;28;20035;-79
2023/08/29 08:52:36;;;;;;;1.33;0.20;;;20.50;92.90;;;;;;5096943;28;20451;-81
2023/08/29 08:55:02;;;;;;;0.50;0.20;;;20.50;92.70;;;;;;5096389;28;20103;-80
2023/08/29 08:57:28;;;;;;;2.70;0.20;;;20.60;92.50;;;;;;5095250;28;20032;-78
2023/08/29 08:59:54;;;;;;;2.00;0.22;;;20.70;92.40;;;;;;5095434;28;20441;-81
2023/08/29 09:02:20;;;;;;;2.03;0.20;;;20.80;92.30;;;;;;5094867;28;20032;-80
2023/08/29 09:04:45;;;;;;;0.73;0.10;;;20.80;92.30;;;;;;5096534;28;20384;-79
2023/08/29 09:07:11;;;;;;;1.67;0.30;;;20.90;92.60;;;;;;5097163;28;20035;-81
2023/08/29 09:09:37;;;;;;;1.60;0.20;;;20.90;92.50;;;;;;5096253;28;20038;-80
2023/08/29 09:12:03;;;;;;;1.92;0.20;;;21.00;91.90;;;;;;5096097;28;20067;-81
2023/08/29 09:14:31;;;;;;;1.50;0.25;;;21.00;91.60;;;;;;5096112;28;20032;-80
2023/08/29 09:16:58;;;;;;;1.73;0.28;;;21.00;91.40;;;;;;5094982;28;20032;-80
2023/08/29 09:19:25;;;;;;;1.42;0.20;;;21.10;91.20;;;;;;5095813;28;20461;-79
2023/08/29 09:21:51;;;;;;;1.45;0.20;;;21.10;90.70;;;;;;5094199;28;20070;-80
2023/08/29 09:24:35;;;;;;;4.38;0.20;;;21.20;90.90;;;;;;5093810;28;20039;-79
2023/08/29 09:27:11;;;;;;;1.17;0.10;;;21.20;91.30;;;;;;5095632;28;20465;-80
2023/08/29 09:29:37;;;;;;;2.47;0.20;;;21.10;91.40;;;;;;5095767;28;20074;-80
2023/08/29 09:32:15;;;;;;;1.48;0.20;;;21.10;91.30;;;;;;5095318;28;20038;-80
2023/08/29 09:34:41;;;;;;;1.30;0.15;;;21.20;91.10;;;;;;5095209;28;20111;-80
2023/08/29 09:37:09;;;;;;;0.70;0.15;;;21.20;91.20;;;;;;5095188;28;20102;-80
2023/08/29 09:39:35;;;;;;;1.10;0.15;;;21.30;91.30;;;;;;5096004;28;20118;-80
2023/08/29 09:42:08;;;;;;;1.17;0.20;;;21.40;90.80;;;;;;5096352;28;20056;-81
2023/08/29 09:44:39;;;;;;;2.20;0.35;;;21.40;90.60;;;;;;5096088;28;20473;-80
2023/08/29 09:47:06;;;;;;;2.25;0.28;;;21.50;90.30;;;;;;5096451;28;20482;-80
2023/08/29 09:49:41;;;;;;;1.38;0.20;;;21.50;90.10;;;;;;5096004;28;20043;-73
2023/08/29 09:52:09;;;;;;;0.80;0.22;;;21.50;90.00;;;;;;5096476;28;20354;-79
2023/08/29 09:54:38;;;;;;;1.63;0.20;;;21.60;90.20;;;;;;5095841;28;20032;-79
2023/08/29 09:57:08;;;;;;;2.80;0.22;;;21.60;90.20;;;;;;5095236;28;20024;-79
2023/08/29 09:59:39;;;;;;;3.10;0.30;;;21.70;90.30;;;;;;5095437;28;20020;-80
2023/08/29 10:02:06;;;;;;;1.80;0.50;;;21.70;90.50;;;;;;5095749;28;20104;-79
2023/08/29 10:04:36;;;;;;;2.72;0.30;;;21.70;90.10;;;;;;5094925;28;20028;-80
2023/08/29 10:07:03;;;;;;;1.70;0.30;;;21.70;90.00;;;;;;5095490;28;20468;-80
2023/08/29 10:09:30;;;;;;;1.42;0.30;;;21.90;89.80;;;;;;5095925;28;20495;-80
2023/08/29 10:11:56;;;;;;;1.65;0.17;;;22.10;89.50;;;;;;5095100;28;20032;-79
2023/08/29 10:14:23;;;;;;;1.60;0.60;;;22.30;90.00;;;;;;5094488;28;20028;-81
2023/08/29 10:16:50;;;;;;;3.38;0.30;;;22.40;89.50;;;;;;5095488;28;20078;-81
2023/08/29 10:19:16;;;;;;;1.40;0.30;;;22.40;88.20;;;;;;5094937;28;20076;-80
2023/08/29 10:21:42;;;;;;;1.05;0.60;;;22.50;87.50;;;;;;5094831;28;20115;-79
2023/08/29 10:24:11;;;;;;;1.95;0.63;;;22.60;87.50;;;;;;5095853;28;20082;-81
2023/08/29 10:26:38;;;;;;;1.13;0.35;;;22.70;86.70;;;;;;5094503;28;20078;-79
2023/08/29 10:29:05;;;;;;;1.30;0.30;;;22.70;88.20;;;;;;5093094;28;20097;-79
2023/08/29 10:31:33;;;;;;;1.23;0.20;;;22.80;87.30;;;;;;5095653;28;20051;-80
2023/08/29 10:34:03;;;;;;;0.68;0.20;;;22.90;86.30;;;;;;5095075;28;20021;-80
2023/08/29 10:36:29;;;;;;;1.70;0.10;;;22.90;86.30;;;;;;5093801;28;20057;-79
2023/08/29 10:38:56;;;;;;;1.52;0.22;;;22.80;86.10;;;;;;5077076;28;20032;-80
2023/08/29 10:41:22;;;;;;;1.15;0.25;;;22.80;86.20;;;;;;5093617;28;20024;-80
2023/08/29 10:43:52;;;;;;;1.20;0.20;;;22.60;86.10;;;;;;5094772;28;20047;-79
2023/08/29 10:46:20;;;;;;;3.05;0.30;;;22.50;86.20;;;;;;5094320;28;20080;-80
2023/08/29 10:48:46;;;;;;;0.90;0.20;;;22.40;86.50;;;;;;5094261;28;20028;-80
2023/08/29 10:51:13;;;;;;;0.40;0.10;;;22.30;87.20;;;;;;5093893;28;20052;-80
2023/08/29 10:54:05;;;;;;;0.82;0.20;;;22.20;87.60;;;;;;5092581;28;20058;-80
2023/08/29 10:56:42;;;;;;;1.05;0.20;;;22.10;87.90;;;;;;5094509;28;20452;-82
2023/08/29 10:59:32;;;;;;;1.17;0.20;;;22.00;87.40;;;;;;5094010;28;20533;-80
2023/08/29 11:02:23;;;;;;;1.60;0.28;;;21.80;88.30;;;;;;5093851;28;20031;-80
2023/08/29 11:05:14;;;;;;;1.60;0.20;;;21.80;89.00;;;;;;5093746;28;20024;-81
2023/08/29 11:07:40;;;;;;;1.25;0.30;;;21.70;89.40;;;;;;5086144;28;20043;-81
2023/08/29 11:10:20;;;;;;;0.90;0.25;;;21.60;88.60;;;;;;5093871;28;20040;-81
2023/08/29 11:13:07;;;;;;;1.55;0.30;;;21.50;89.00;;;;;;5093707;28;20024;-79
2023/08/29 11:15:51;;;;;;;0.75;0.20;;;21.50;89.20;;;;;;5094297;28;20173;-81
2023/08/29 11:18:32;;;;;;;0.98;0.20;;;21.50;89.50;;;;;;5094426;28;20024;-80
2023/08/29 11:21:07;;;;;;;0.82;0.30;;;21.50;89.50;;;;;;5093736;28;20032;-79
2023/08/29 11:23:40;;;;;;;1.23;0.30;;;21.50;89.80;;;;;;5094604;28;20032;-79
2023/08/29 11:26:08;;;;;;;0.98;0.10;;;21.40;90.10;;;;;;5093357;28;20028;-81
2023/08/29 11:28:42;;;;;;;0.52;0.17;;;21.50;90.10;;;;;;5093705;28;20025;-81
2023/08/29 11:31:09;;;;;;;1.60;0.20;;;21.50;90.10;;;;;;5093553;28;20086;-81
2023/08/29 11:33:36;;;;;;;1.50;0.20;;;21.60;90.00;;;;;;5093707;28;20357;-80
2023/08/29 11:36:04;;;;;;;3.53;0.50;;;21.70;90.00;;;;;;5093477;28;20028;-82
2023/08/29 11:38:31;;;;;;;0.98;0.30;;;21.70;89.80;;;;;;5093428;28;20020;-80
2023/08/29 11:40:58;;;;;;;0.38;0.20;;;21.90;89.10;;;;;;5091762;28;20032;-79
2023/08/29 11:43:24;;;;;;;2.97;0.40;;;21.90;88.90;;;;;;5093115;28;20591;-81
2023/08/29 11:45:57;;;;;;;3.65;1.13;;;22.00;88.90;;;;;;5093417;28;20056;-80
2023/08/29 11:48:28;;;;;;;2.25;0.90;;;22.10;87.60;;;;;;5093820;28;20025;-81
2023/08/29 11:51:05;;;;;;;1.70;0.95;;;22.00;87.40;;;;;;5091640;28;20036;-81
2023/08/29 11:53:37;;;;;;;3.35;0.82;;;22.00;87.60;;;;;;5093251;28;20028;-80
2023/08/29 11:56:08;;;;;;;1.83;0.50;;;22.10;88.20;;;;;;5093217;28;20024;-82
2023/08/29 11:58:36;;;;;;;3.00;0.80;;;22.10;88.30;;;;;;5095610;28;20062;-81
2023/08/29 12:01:03;;;;;;;2.88;0.73;;;22.00;88.30;;;;;;5097251;28;20036;-80
2023/08/29 12:03:29;;;;;;;5.97;0.90;;;22.00;88.10;;;;;;5096624;28;20482;-82
2023/08/29 12:05:58;;;;;;;5.88;0.90;;;22.00;87.60;;;;;;5096651;28;20055;-81
2023/08/29 12:08:37;;;;;;;3.08;0.80;;;22.00;87.00;;;;;;5096916;28;20080;-81
2023/08/29 12:11:03;;;;;;;1.15;0.47;;;22.10;85.90;;;;;;5096953;28;20058;-79
2023/08/29 12:13:29;;;;;;;2.15;0.40;;;22.00;85.10;;;;;;5096505;28;20457;-81
2023/08/29 12:15:55;;;;;;;3.25;0.68;;;22.10;85.70;;;;;;5096780;28;20020;-80
2023/08/29 12:18:23;;;;;;;4.88;0.70;;;22.30;86.50;;;;;;5096647;28;20028;-81
2023/08/29 12:20:49;;;;;;;1.98;0.60;;;22.40;85.70;;;;;;5097230;28;20032;-81
2023/08/29 12:23:26;;;;;;;2.50;0.70;;;22.50;84.40;;;;;;5095405;28;20028;-79
2023/08/29 12:25:53;;;;;;;8.02;2.15;;;22.60;83.80;;;;;;5096411;28;20020;-81
2023/08/29 12:28:19;;;;;;;2.75;0.52;;;22.80;83.50;;;;;;5096393;28;20035;-81
2023/08/29 12:30:45;;;;;;;2.80;1.00;;;22.80;82.80;;;;;;5095994;28;20391;-80
2023/08/29 12:33:10;;;;;;;1.15;0.85;;;22.80;82.60;;;;;;5096552;28;20496;-81
2023/08/29 12:35:38;;;;;;;2.42;0.70;;;22.70;83.00;;;;;;5094927;28;20040;-81
2023/08/29 12:38:04;;;;;;;0.85;0.55;;;22.70;83.40;;;;;;5096706;28;20028;-80
2023/08/29 12:40:30;;;;;;;1.30;0.40;;;22.70;82.60;;;;;;5095337;28;20495;-81
2023/08/29 12:42:56;;;;;;;1.88;0.68;;;22.70;82.70;;;;;;5096516;28;20020;-81
2023/08/29 12:45:22;;;;;;;1.13;0.55;;;22.70;82.90;;;;;;5078034;28;20039;-82
2023/08/29 12:47:48;;;;;;;0.45;0.20;;;22.70;82.80;;;;;;5094947;28;20123;-80